sensor_id;sensor_type;location;lat;lon;timestamp;P1;P2;P0
54587;PMS7003;40484;50.198;19.576;2023-02-22T00:04:05;20;20;12
54587;PMS7003;40484;50.198;19.576;2023-02-22T00:09:07;30;23;15
54587;PMS7003;40484;50.198;19.576;2023-02-22T00:14:09;46;36;24
54587;PMS7003;40484;50.198;19.576;2023-02-22T00:19:12;41;34;24
54587;PMS7003;40484;50.198;19.576;2023-02-22T00:24:13;24;24;16
54587;PMS7003;40484;50.198;19.576;2023-02-22T00:29:49;41;34;23
54587;PMS7003;40484;50.198;19.576;2023-02-22T00:34:51;26;24;17
54587;PMS7003;40484;50.198;19.576;2023-02-22T00:39:53;24;23;17
54587;PMS7003;40484;50.198;19.576;2023-02-22T00:44:55;30;27;16
54587;PMS7003;40484;50.198;19.576;2023-02-22T00:49:56;26;23;15
54587;PMS7003;40484;50.198;19.576;2023-02-22T00:54:58;16;16;13
54587;PMS7003;40484;50.198;19.576;2023-02-22T01:00:00;21;19;13
54587;PMS7003;40484;50.198;19.576;2023-02-22T01:05:08;15;14;10
54587;PMS7003;40484;50.198;19.576;2023-02-22T01:10:17;22;19;11
54587;PMS7003;40484;50.198;19.576;2023-02-22T01:15:20;26;24;13
54587;PMS7003;40484;50.198;19.576;2023-02-22T01:20:22;18;17;11
54587;PMS7003;40484;50.198;19.576;2023-02-22T01:25:27;23;20;13
54587;PMS7003;40484;50.198;19.576;2023-02-22T01:30:29;18;18;14
54587;PMS7003;40484;50.198;19.576;2023-02-22T01:35:34;25;21;14
54587;PMS7003;40484;50.198;19.576;2023-02-22T01:40:37;19;18;13
54587;PMS7003;40484;50.198;19.576;2023-02-22T01:45:42;26;24;14
54587;PMS7003;40484;50.198;19.576;2023-02-22T01:51:15;21;18;14
54587;PMS7003;40484;50.198;19.576;2023-02-22T01:56:18;18;18;12
54587;PMS7003;40484;50.198;19.576;2023-02-22T02:01:21;20;18;11
54587;PMS7003;40484;50.198;19.576;2023-02-22T02:06:24;24;23;16
54587;PMS7003;40484;50.198;19.576;2023-02-22T02:11:27;24;19;13
54587;PMS7003;40484;50.198;19.576;2023-02-22T02:16:43;28;26;14
54587;PMS7003;40484;50.198;19.576;2023-02-22T02:27:19;19;18;13
54587;PMS7003;40484;50.198;19.576;2023-02-22T02:43:31;19;19;14
54587;PMS7003;40484;50.198;19.576;2023-02-22T02:48:33;21;19;13
54587;PMS7003;40484;50.198;19.576;2023-02-22T02:53:36;15;15;12
54587;PMS7003;40484;50.198;19.576;2023-02-22T02:58:49;12;12;8
54587;PMS7003;40484;50.198;19.576;2023-02-22T03:04:03;18;16;10
54587;PMS7003;40484;50.198;19.576;2023-02-22T03:09:12;19;16;10
54587;PMS7003;40484;50.198;19.576;2023-02-22T03:14:37;22;19;12
54587;PMS7003;40484;50.198;19.576;2023-02-22T03:19:39;17;16;13
54587;PMS7003;40484;50.198;19.576;2023-02-22T03:24:50;23;20;12
54587;PMS7003;40484;50.198;19.576;2023-02-22T03:30:26;22;21;14
54587;PMS7003;40484;50.198;19.576;2023-02-22T03:35:30;18;17;13
54587;PMS7003;40484;50.198;19.576;2023-02-22T03:40:34;25;22;13
54587;PMS7003;40484;50.198;19.576;2023-02-22T03:45:36;25;22;14
54587;PMS7003;40484;50.198;19.576;2023-02-22T03:50:39;27;23;15
54587;PMS7003;40484;50.198;19.576;2023-02-22T03:55:41;23;22;15
54587;PMS7003;40484;50.198;19.576;2023-02-22T04:00:42;23;19;13
54587;PMS7003;40484;50.198;19.576;2023-02-22T04:05:44;29;24;16
54587;PMS7003;40484;50.198;19.576;2023-02-22T04:10:45;30;28;20
54587;PMS7003;40484;50.198;19.576;2023-02-22T04:15:47;58;46;27
54587;PMS7003;40484;50.198;19.576;2023-02-22T04:20:49;22;21;14
54587;PMS7003;40484;50.198;19.576;2023-02-22T04:25:51;26;25;17
54587;PMS7003;40484;50.198;19.576;2023-02-22T04:30:53;25;19;14
54587;PMS7003;40484;50.198;19.576;2023-02-22T04:35:54;25;21;13
54587;PMS7003;40484;50.198;19.576;2023-02-22T04:40:59;21;19;13
54587;PMS7003;40484;50.198;19.576;2023-02-22T04:46:01;33;29;17
54587;PMS7003;40484;50.198;19.576;2023-02-22T04:51:04;25;24;16
54587;PMS7003;40484;50.198;19.576;2023-02-22T04:56:06;27;22;13
54587;PMS7003;40484;50.198;19.576;2023-02-22T05:01:07;20;19;13
54587;PMS7003;40484;50.198;19.576;2023-02-22T05:06:09;27;25;16
54587;PMS7003;40484;50.198;19.576;2023-02-22T05:11:38;48;33;22
54587;PMS7003;40484;50.198;19.576;2023-02-22T05:16:40;21;21;14
54587;PMS7003;40484;50.198;19.576;2023-02-22T05:21:41;31;28;18
54587;PMS7003;40484;50.198;19.576;2023-02-22T05:26:43;29;26;16
54587;PMS7003;40484;50.198;19.576;2023-02-22T05:31:45;31;26;16
54587;PMS7003;40484;50.198;19.576;2023-02-22T05:36:46;42;36;24
54587;PMS7003;40484;50.198;19.576;2023-02-22T05:41:48;47;39;24
54587;PMS7003;40484;50.198;19.576;2023-02-22T05:46:49;36;32;19
54587;PMS7003;40484;50.198;19.576;2023-02-22T05:51:51;48;37;23
54587;PMS7003;40484;50.198;19.576;2023-02-22T05:56:52;42;35;22
54587;PMS7003;40484;50.198;19.576;2023-02-22T06:01:54;32;29;17
54587;PMS7003;40484;50.198;19.576;2023-02-22T06:06:55;31;28;19
54587;PMS7003;40484;50.198;19.576;2023-02-22T06:11:57;47;36;22
54587;PMS7003;40484;50.198;19.576;2023-02-22T06:16:58;29;25;17
54587;PMS7003;40484;50.198;19.576;2023-02-22T06:22:00;25;19;11
54587;PMS7003;40484;50.198;19.576;2023-02-22T06:27:03;23;18;11
54587;PMS7003;40484;50.198;19.576;2023-02-22T06:32:04;28;25;16
54587;PMS7003;40484;50.198;19.576;2023-02-22T06:37:06;45;38;25
54587;PMS7003;40484;50.198;19.576;2023-02-22T06:42:08;30;28;16
54587;PMS7003;40484;50.198;19.576;2023-02-22T06:47:09;26;23;18
54587;PMS7003;40484;50.198;19.576;2023-02-22T06:52:11;18;17;14
54587;PMS7003;40484;50.198;19.576;2023-02-22T06:57:12;37;33;21
54587;PMS7003;40484;50.198;19.576;2023-02-22T07:02:38;17;16;11
54587;PMS7003;40484;50.198;19.576;2023-02-22T07:07:40;53;43;26
54587;PMS7003;40484;50.198;19.576;2023-02-22T07:12:41;21;19;12
54587;PMS7003;40484;50.198;19.576;2023-02-22T07:17:42;10;6;5
54587;PMS7003;40484;50.198;19.576;2023-02-22T07:22:44;12;9;7
54587;PMS7003;40484;50.198;19.576;2023-02-22T07:27:46;9;8;6
54587;PMS7003;40484;50.198;19.576;2023-02-22T07:32:48;10;10;7
54587;PMS7003;40484;50.198;19.576;2023-02-22T07:37:49;20;18;11
54587;PMS7003;40484;50.198;19.576;2023-02-22T07:42:55;10;10;7
54587;PMS7003;40484;50.198;19.576;2023-02-22T07:48:00;13;11;8
54587;PMS7003;40484;50.198;19.576;2023-02-22T07:53:04;20;18;14
54587;PMS7003;40484;50.198;19.576;2023-02-22T07:58:07;23;20;12
54587;PMS7003;40484;50.198;19.576;2023-02-22T08:03:10;13;11;7
54587;PMS7003;40484;50.198;19.576;2023-02-22T08:08:12;12;11;8
54587;PMS7003;40484;50.198;19.576;2023-02-22T08:13:16;13;12;10
54587;PMS7003;40484;50.198;19.576;2023-02-22T08:18:18;30;24;15
54587;PMS7003;40484;50.198;19.576;2023-02-22T08:23:22;12;12;8
54587;PMS7003;40484;50.198;19.576;2023-02-22T08:28:25;14;11;6
54587;PMS7003;40484;50.198;19.576;2023-02-22T08:33:54;6;6;5
54587;PMS7003;40484;50.198;19.576;2023-02-22T08:38:56;6;4;3
54587;PMS7003;40484;50.198;19.576;2023-02-22T08:43:58;15;13;10
54587;PMS7003;40484;50.198;19.576;2023-02-22T08:49:01;11;10;7
54587;PMS7003;40484;50.198;19.576;2023-02-22T08:54:03;7;6;5
54587;PMS7003;40484;50.198;19.576;2023-02-22T08:59:06;10;9;6
54587;PMS7003;40484;50.198;19.576;2023-02-22T09:04:08;6;6;5
54587;PMS7003;40484;50.198;19.576;2023-02-22T09:09:09;13;12;8
54587;PMS7003;40484;50.198;19.576;2023-02-22T09:14:11;11;10;7
54587;PMS7003;40484;50.198;19.576;2023-02-22T09:19:14;11;10;8
54587;PMS7003;40484;50.198;19.576;2023-02-22T09:24:16;23;17;12
54587;PMS7003;40484;50.198;19.576;2023-02-22T09:29:17;6;6;6
54587;PMS7003;40484;50.198;19.576;2023-02-22T09:34:21;13;13;8
54587;PMS7003;40484;50.198;19.576;2023-02-22T09:39:25;10;9;6
54587;PMS7003;40484;50.198;19.576;2023-02-22T09:44:33;12;10;7
54587;PMS7003;40484;50.198;19.576;2023-02-22T09:49:43;11;10;6
54587;PMS7003;40484;50.198;19.576;2023-02-22T09:54:49;15;15;10
54587;PMS7003;40484;50.198;19.576;2023-02-22T10:00:19;30;23;15
54587;PMS7003;40484;50.198;19.576;2023-02-22T10:05:26;14;12;7
54587;PMS7003;40484;50.198;19.576;2023-02-22T10:10:29;12;12;7
54587;PMS7003;40484;50.198;19.576;2023-02-22T10:15:39;7;7;5
54587;PMS7003;40484;50.198;19.576;2023-02-22T10:28:11;7;7;6
54587;PMS7003;40484;50.198;19.576;2023-02-22T10:33:22;8;8;7
54587;PMS7003;40484;50.198;19.576;2023-02-22T10:38:26;4;3;2
54587;PMS7003;40484;50.198;19.576;2023-02-22T10:43:29;7;6;5
54587;PMS7003;40484;50.198;19.576;2023-02-22T10:48:31;6;5;4
54587;PMS7003;40484;50.198;19.576;2023-02-22T10:53:35;6;6;5
54587;PMS7003;40484;50.198;19.576;2023-02-22T10:58:42;8;7;4
54587;PMS7003;40484;50.198;19.576;2023-02-22T11:03:45;4;4;3
54587;PMS7003;40484;50.198;19.576;2023-02-22T11:08:48;4;4;3
54587;PMS7003;40484;50.198;19.576;2023-02-22T11:13:54;6;6;6
54587;PMS7003;40484;50.198;19.576;2023-02-22T11:19:05;5;4;3
54587;PMS7003;40484;50.198;19.576;2023-02-22T11:24:27;7;5;4
54587;PMS7003;40484;50.198;19.576;2023-02-22T11:29:32;21;20;14
54587;PMS7003;40484;50.198;19.576;2023-02-22T11:34:39;8;8;6
54587;PMS7003;40484;50.198;19.576;2023-02-22T11:39:38;45;38;25
54587;PMS7003;40484;50.198;19.576;2023-02-22T11:44:42;17;16;13
54587;PMS7003;40484;50.198;19.576;2023-02-22T11:49:44;6;6;4
54587;PMS7003;40484;50.198;19.576;2023-02-22T12:00:17;7;7;5
54587;PMS7003;40484;50.198;19.576;2023-02-22T12:05:22;8;8;6
54587;PMS7003;40484;50.198;19.576;2023-02-22T12:10:39;10;10;7
54587;PMS7003;40484;50.198;19.576;2023-02-22T12:15:50;9;8;6
54587;PMS7003;40484;50.198;19.576;2023-02-22T12:21:15;15;13;10
54587;PMS7003;40484;50.198;19.576;2023-02-22T12:26:25;18;16;11
54587;PMS7003;40484;50.198;19.576;2023-02-22T12:36:39;11;11;8
54587;PMS7003;40484;50.198;19.576;2023-02-22T12:41:47;14;14;11
54587;PMS7003;40484;50.198;19.576;2023-02-22T12:46:50;8;8;6
54587;PMS7003;40484;50.198;19.576;2023-02-22T12:51:57;9;9;7
54587;PMS7003;40484;50.198;19.576;2023-02-22T13:02:28;11;10;7
54587;PMS7003;40484;50.198;19.576;2023-02-22T13:07:39;10;9;7
54587;PMS7003;40484;50.198;19.576;2023-02-22T13:29:18;6;5;4
54587;PMS7003;40484;50.198;19.576;2023-02-22T13:39:48;10;10;8
54587;PMS7003;40484;50.198;19.576;2023-02-22T13:51:05;8;7;6
54587;PMS7003;40484;50.198;19.576;2023-02-22T13:56:25;7;7;5
54587;PMS7003;40484;50.198;19.576;2023-02-22T14:01:41;9;9;7
54587;PMS7003;40484;50.198;19.576;2023-02-22T14:06:46;9;8;5
54587;PMS7003;40484;50.198;19.576;2023-02-22T14:11:47;9;8;7
54587;PMS7003;40484;50.198;19.576;2023-02-22T14:22:41;15;13;10
54587;PMS7003;40484;50.198;19.576;2023-02-22T14:27:43;23;18;13
54587;PMS7003;40484;50.198;19.576;2023-02-22T14:32:45;11;11;7
54587;PMS7003;40484;50.198;19.576;2023-02-22T14:37:50;16;15;10
54587;PMS7003;40484;50.198;19.576;2023-02-22T14:43:05;13;13;11
54587;PMS7003;40484;50.198;19.576;2023-02-22T15:04:27;20;19;14
54587;PMS7003;40484;50.198;19.576;2023-02-22T15:10:05;23;22;14
54587;PMS7003;40484;50.198;19.576;2023-02-22T15:15:19;18;17;13
54587;PMS7003;40484;50.198;19.576;2023-02-22T15:20:21;42;34;22
54587;PMS7003;40484;50.198;19.576;2023-02-22T15:25:25;21;18;13
54587;PMS7003;40484;50.198;19.576;2023-02-22T15:30:29;31;28;17
54587;PMS7003;40484;50.198;19.576;2023-02-22T15:35:33;18;18;13
54587;PMS7003;40484;50.198;19.576;2023-02-22T15:40:35;17;14;10
54587;PMS7003;40484;50.198;19.576;2023-02-22T15:45:36;15;14;10
54587;PMS7003;40484;50.198;19.576;2023-02-22T15:50:50;11;11;9
54587;PMS7003;40484;50.198;19.576;2023-02-22T15:56:03;27;24;18
54587;PMS7003;40484;50.198;19.576;2023-02-22T16:01:11;47;36;26
54587;PMS7003;40484;50.198;19.576;2023-02-22T16:06:39;13;10;9
54587;PMS7003;40484;50.198;19.576;2023-02-22T16:11:43;12;10;8
54587;PMS7003;40484;50.198;19.576;2023-02-22T16:16:47;13;12;9
54587;PMS7003;40484;50.198;19.576;2023-02-22T16:21:49;13;12;8
54587;PMS7003;40484;50.198;19.576;2023-02-22T16:32:15;17;16;11
54587;PMS7003;40484;50.198;19.576;2023-02-22T16:37:20;15;14;11
54587;PMS7003;40484;50.198;19.576;2023-02-22T16:42:22;20;19;13
54587;PMS7003;40484;50.198;19.576;2023-02-22T16:47:24;30;26;13
54587;PMS7003;40484;50.198;19.576;2023-02-22T16:52:25;35;26;17
54587;PMS7003;40484;50.198;19.576;2023-02-22T16:57:27;23;23;16
54587;PMS7003;40484;50.198;19.576;2023-02-22T17:02:31;21;20;12
54587;PMS7003;40484;50.198;19.576;2023-02-22T17:07:32;25;24;16
54587;PMS7003;40484;50.198;19.576;2023-02-22T17:12:34;25;21;14
54587;PMS7003;40484;50.198;19.576;2023-02-22T17:17:35;29;25;17
54587;PMS7003;40484;50.198;19.576;2023-02-22T17:22:37;32;29;16
54587;PMS7003;40484;50.198;19.576;2023-02-22T17:28:03;28;26;18
54587;PMS7003;40484;50.198;19.576;2023-02-22T17:33:06;31;28;17
54587;PMS7003;40484;50.198;19.576;2023-02-22T17:38:09;40;34;22
54587;PMS7003;40484;50.198;19.576;2023-02-22T17:43:11;40;34;22
54587;PMS7003;40484;50.198;19.576;2023-02-22T17:48:12;38;35;21
54587;PMS7003;40484;50.198;19.576;2023-02-22T17:53:15;38;29;20
54587;PMS7003;40484;50.198;19.576;2023-02-22T17:58:19;43;34;23
54587;PMS7003;40484;50.198;19.576;2023-02-22T18:03:23;37;31;21
54587;PMS7003;40484;50.198;19.576;2023-02-22T18:08:26;34;30;19
54587;PMS7003;40484;50.198;19.576;2023-02-22T18:13:30;32;30;19
54587;PMS7003;40484;50.198;19.576;2023-02-22T18:18:31;37;31;21
54587;PMS7003;40484;50.198;19.576;2023-02-22T18:23:33;38;32;22
54587;PMS7003;40484;50.198;19.576;2023-02-22T18:28:35;40;35;21
54587;PMS7003;40484;50.198;19.576;2023-02-22T18:33:36;30;26;17
54587;PMS7003;40484;50.198;19.576;2023-02-22T18:38:38;31;27;17
54587;PMS7003;40484;50.198;19.576;2023-02-22T18:43:42;32;28;20
54587;PMS7003;40484;50.198;19.576;2023-02-22T18:48:50;29;27;19
54587;PMS7003;40484;50.198;19.576;2023-02-22T18:53:55;32;31;20
54587;PMS7003;40484;50.198;19.576;2023-02-22T18:59:26;37;31;18
54587;PMS7003;40484;50.198;19.576;2023-02-22T19:04:27;29;28;18
54587;PMS7003;40484;50.198;19.576;2023-02-22T19:09:28;40;32;20
54587;PMS7003;40484;50.198;19.576;2023-02-22T19:14:30;34;31;20
54587;PMS7003;40484;50.198;19.576;2023-02-22T19:19:32;35;31;21
54587;PMS7003;40484;50.198;19.576;2023-02-22T19:24:33;38;32;19
54587;PMS7003;40484;50.198;19.576;2023-02-22T19:29:36;37;32;18
54587;PMS7003;40484;50.198;19.576;2023-02-22T19:34:39;42;37;23
54587;PMS7003;40484;50.198;19.576;2023-02-22T19:39:43;47;37;23
54587;PMS7003;40484;50.198;19.576;2023-02-22T19:44:44;49;40;24
54587;PMS7003;40484;50.198;19.576;2023-02-22T19:49:48;45;39;23
54587;PMS7003;40484;50.198;19.576;2023-02-22T19:54:50;55;43;26
54587;PMS7003;40484;50.198;19.576;2023-02-22T19:59:53;51;42;26
54587;PMS7003;40484;50.198;19.576;2023-02-22T20:04:54;61;48;28
54587;PMS7003;40484;50.198;19.576;2023-02-22T20:09:56;43;38;25
54587;PMS7003;40484;50.198;19.576;2023-02-22T20:14:57;45;36;21
54587;PMS7003;40484;50.198;19.576;2023-02-22T20:19:59;47;40;25
54587;PMS7003;40484;50.198;19.576;2023-02-22T20:25:01;51;41;26
54587;PMS7003;40484;50.198;19.576;2023-02-22T20:30:03;48;35;19
54587;PMS7003;40484;50.198;19.576;2023-02-22T20:35:05;51;42;23
54587;PMS7003;40484;50.198;19.576;2023-02-22T20:40:33;40;34;23
54587;PMS7003;40484;50.198;19.576;2023-02-22T20:45:36;49;39;25
54587;PMS7003;40484;50.198;19.576;2023-02-22T20:50:38;50;41;25
54587;PMS7003;40484;50.198;19.576;2023-02-22T20:55:46;47;37;23
54587;PMS7003;40484;50.198;19.576;2023-02-22T21:00:46;48;39;24
54587;PMS7003;40484;50.198;19.576;2023-02-22T21:05:47;44;37;23
54587;PMS7003;40484;50.198;19.576;2023-02-22T21:10:49;39;33;20
54587;PMS7003;40484;50.198;19.576;2023-02-22T21:15:51;49;39;26
54587;PMS7003;40484;50.198;19.576;2023-02-22T21:20:52;48;39;23
54587;PMS7003;40484;50.198;19.576;2023-02-22T21:25:54;51;40;24
54587;PMS7003;40484;50.198;19.576;2023-02-22T21:31:02;45;36;24
54587;PMS7003;40484;50.198;19.576;2023-02-22T21:36:01;43;35;21
54587;PMS7003;40484;50.198;19.576;2023-02-22T21:41:04;38;33;22
54587;PMS7003;40484;50.198;19.576;2023-02-22T21:46:07;40;33;19
54587;PMS7003;40484;50.198;19.576;2023-02-22T21:51:11;29;27;19
54587;PMS7003;40484;50.198;19.576;2023-02-22T21:56:15;30;28;18
54587;PMS7003;40484;50.198;19.576;2023-02-22T22:01:18;21;19;14
54587;PMS7003;40484;50.198;19.576;2023-02-22T22:06:20;25;23;15
54587;PMS7003;40484;50.198;19.576;2023-02-22T22:11:21;21;20;13
54587;PMS7003;40484;50.198;19.576;2023-02-22T22:16:50;18;17;11
54587;PMS7003;40484;50.198;19.576;2023-02-22T22:21:52;16;16;11
54587;PMS7003;40484;50.198;19.576;2023-02-22T22:26:54;16;15;10
54587;PMS7003;40484;50.198;19.576;2023-02-22T22:31:56;15;13;10
54587;PMS7003;40484;50.198;19.576;2023-02-22T22:36:57;16;12;10
54587;PMS7003;40484;50.198;19.576;2023-02-22T22:41:59;15;13;10
54587;PMS7003;40484;50.198;19.576;2023-02-22T22:47:01;11;10;8
54587;PMS7003;40484;50.198;19.576;2023-02-22T22:52:03;12;11;8
54587;PMS7003;40484;50.198;19.576;2023-02-22T22:57:05;12;11;8
54587;PMS7003;40484;50.198;19.576;2023-02-22T23:02:07;11;10;8
54587;PMS7003;40484;50.198;19.576;2023-02-22T23:07:10;10;10;8
54587;PMS7003;40484;50.198;19.576;2023-02-22T23:12:12;15;11;9
54587;PMS7003;40484;50.198;19.576;2023-02-22T23:17:17;10;10;7
54587;PMS7003;40484;50.198;19.576;2023-02-22T23:22:29;12;12;8
54587;PMS7003;40484;50.198;19.576;2023-02-22T23:27:31;11;9;8
54587;PMS7003;40484;50.198;19.576;2023-02-22T23:32:33;9;9;6
54587;PMS7003;40484;50.198;19.576;2023-02-22T23:37:34;9;9;7
54587;PMS7003;40484;50.198;19.576;2023-02-22T23:42:36;10;8;6
54587;PMS7003;40484;50.198;19.576;2023-02-22T23:48:05;11;10;7
54587;PMS7003;40484;50.198;19.576;2023-02-22T23:53:08;10;10;8
54587;PMS7003;40484;50.198;19.576;2023-02-22T23:58:12;10;10;8
